sensor_id;sensor_type;location;lat;lon;timestamp;P1;durP1;ratioP1;P2;durP2;ratioP2
25111;SDS011;13092;51.996;4.458;2023-10-13T00:12:21;39.70;;;35.97;;
25111;SDS011;13092;51.996;4.458;2023-10-13T00:15:14;39.67;;;35.70;;
25111;SDS011;13092;51.996;4.458;2023-10-13T00:18:11;39.53;;;35.92;;
25111;SDS011;13092;51.996;4.458;2023-10-13T00:21:46;41.03;;;36.92;;
25111;SDS011;13092;51.996;4.458;2023-10-13T00:25:09;42.17;;;38.08;;
25111;SDS011;13092;51.996;4.458;2023-10-13T00:28:19;42.72;;;38.47;;
25111;SDS011;13092;51.996;4.458;2023-10-13T00:31:38;41.70;;;37.40;;
25111;SDS011;13092;51.996;4.458;2023-10-13T00:34:31;43.38;;;38.95;;
25111;SDS011;13092;51.996;4.458;2023-10-13T00:37:58;43.90;;;39.50;;
25111;SDS011;13092;51.996;4.458;2023-10-13T00:41:22;42.33;;;38.15;;
25111;SDS011;13092;51.996;4.458;2023-10-13T00:48:10;45.25;;;40.75;;
25111;SDS011;13092;51.996;4.458;2023-10-13T00:51:04;44.90;;;40.35;;
25111;SDS011;13092;51.996;4.458;2023-10-13T00:54:38;42.80;;;38.20;;
25111;SDS011;13092;51.996;4.458;2023-10-13T01:01:05;40.65;;;36.65;;
25111;SDS011;13092;51.996;4.458;2023-10-13T01:14:15;37.25;;;33.50;;
25111;SDS011;13092;51.996;4.458;2023-10-13T01:20:52;37.78;;;33.75;;
25111;SDS011;13092;51.996;4.458;2023-10-13T01:27:53;37.88;;;33.97;;
25111;SDS011;13092;51.996;4.458;2023-10-13T01:34:33;37.85;;;34.08;;
25111;SDS011;13092;51.996;4.458;2023-10-13T01:38:01;38.88;;;34.97;;
25111;SDS011;13092;51.996;4.458;2023-10-13T01:41:22;38.15;;;34.22;;
25111;SDS011;13092;51.996;4.458;2023-10-13T01:44:18;37.38;;;33.78;;
25111;SDS011;13092;51.996;4.458;2023-10-13T01:54:07;37.58;;;33.78;;
25111;SDS011;13092;51.996;4.458;2023-10-13T02:11:29;37.40;;;33.47;;
25111;SDS011;13092;51.996;4.458;2023-10-13T02:15:09;38.25;;;34.25;;
25111;SDS011;13092;51.996;4.458;2023-10-13T02:18:47;38.15;;;34.20;;
25111;SDS011;13092;51.996;4.458;2023-10-13T02:25:03;37.65;;;33.75;;
25111;SDS011;13092;51.996;4.458;2023-10-13T02:28:26;37.80;;;34.03;;
25111;SDS011;13092;51.996;4.458;2023-10-13T02:35:21;37.97;;;34.13;;
25111;SDS011;13092;51.996;4.458;2023-10-13T02:42:24;35.92;;;32.25;;
25111;SDS011;13092;51.996;4.458;2023-10-13T02:54:22;37.78;;;33.95;;
25111;SDS011;13092;51.996;4.458;2023-10-13T03:06:40;36.22;;;32.60;;
25111;SDS011;13092;51.996;4.458;2023-10-13T03:08:59;37.22;;;32.42;;
25111;SDS011;13092;51.996;4.458;2023-10-13T03:19:23;34.38;;;30.95;;
25111;SDS011;13092;51.996;4.458;2023-10-13T03:23:56;34.03;;;30.75;;
25111;SDS011;13092;51.996;4.458;2023-10-13T03:29:58;34.83;;;31.38;;
25111;SDS011;13092;51.996;4.458;2023-10-13T03:44:01;35.08;;;31.80;;
25111;SDS011;13092;51.996;4.458;2023-10-13T03:52:02;34.97;;;31.45;;
25111;SDS011;13092;51.996;4.458;2023-10-13T03:55:29;33.88;;;30.52;;
25111;SDS011;13092;51.996;4.458;2023-10-13T04:05:39;34.17;;;30.83;;
25111;SDS011;13092;51.996;4.458;2023-10-13T04:08:35;34.28;;;30.98;;
25111;SDS011;13092;51.996;4.458;2023-10-13T04:11:51;34.78;;;31.42;;
25111;SDS011;13092;51.996;4.458;2023-10-13T04:15:26;34.53;;;31.10;;
25111;SDS011;13092;51.996;4.458;2023-10-13T04:18:23;34.00;;;30.70;;
25111;SDS011;13092;51.996;4.458;2023-10-13T04:21:19;33.42;;;30.38;;
25111;SDS011;13092;51.996;4.458;2023-10-13T04:24:17;34.05;;;30.85;;
25111;SDS011;13092;51.996;4.458;2023-10-13T04:27:30;33.90;;;30.80;;
25111;SDS011;13092;51.996;4.458;2023-10-13T04:34:00;33.28;;;30.33;;
25111;SDS011;13092;51.996;4.458;2023-10-13T04:37:00;33.30;;;30.02;;
25111;SDS011;13092;51.996;4.458;2023-10-13T04:39:58;32.22;;;29.25;;
25111;SDS011;13092;51.996;4.458;2023-10-13T04:42:59;31.88;;;29.17;;
25111;SDS011;13092;51.996;4.458;2023-10-13T04:46:06;31.58;;;28.73;;
25111;SDS011;13092;51.996;4.458;2023-10-13T04:49:39;32.63;;;29.73;;
25111;SDS011;13092;51.996;4.458;2023-10-13T04:52:48;31.98;;;28.92;;
25111;SDS011;13092;51.996;4.458;2023-10-13T04:59:34;32.05;;;28.80;;
25111;SDS011;13092;51.996;4.458;2023-10-13T05:13:30;33.17;;;30.20;;
25111;SDS011;13092;51.996;4.458;2023-10-13T05:16:46;32.47;;;29.42;;
25111;SDS011;13092;51.996;4.458;2023-10-13T05:20:25;34.13;;;30.75;;
25111;SDS011;13092;51.996;4.458;2023-10-13T05:23:44;33.33;;;30.35;;
25111;SDS011;13092;51.996;4.458;2023-10-13T05:26:52;33.05;;;30.05;;
25111;SDS011;13092;51.996;4.458;2023-10-13T05:33:43;33.65;;;30.13;;
25111;SDS011;13092;51.996;4.458;2023-10-13T05:40:57;33.92;;;30.38;;
25111;SDS011;13092;51.996;4.458;2023-10-13T06:19:26;34.67;;;31.15;;
25111;SDS011;13092;51.996;4.458;2023-10-13T06:23:13;33.72;;;30.23;;
25111;SDS011;13092;51.996;4.458;2023-10-13T06:26:59;34.97;;;31.58;;
25111;SDS011;13092;51.996;4.458;2023-10-13T07:34:37;35.35;;;31.67;;
25111;SDS011;13092;51.996;4.458;2023-10-13T07:44:19;34.95;;;31.17;;
25111;SDS011;13092;51.996;4.458;2023-10-13T08:03:25;34.28;;;31.10;;
25111;SDS011;13092;51.996;4.458;2023-10-13T08:06:32;34.70;;;31.70;;
25111;SDS011;13092;51.996;4.458;2023-10-13T08:09:37;34.05;;;30.77;;
25111;SDS011;13092;51.996;4.458;2023-10-13T08:12:42;35.08;;;31.60;;
25111;SDS011;13092;51.996;4.458;2023-10-13T08:19:06;35.25;;;31.85;;
25111;SDS011;13092;51.996;4.458;2023-10-13T08:22:26;34.83;;;31.42;;
25111;SDS011;13092;51.996;4.458;2023-10-13T08:25:33;34.85;;;31.48;;
25111;SDS011;13092;51.996;4.458;2023-10-13T08:28:35;34.70;;;31.73;;
25111;SDS011;13092;51.996;4.458;2023-10-13T08:31:48;35.22;;;31.85;;
25111;SDS011;13092;51.996;4.458;2023-10-13T08:49:24;35.80;;;32.60;;
25111;SDS011;13092;51.996;4.458;2023-10-13T08:51:57;35.63;;;31.77;;
25111;SDS011;13092;51.996;4.458;2023-10-13T08:54:35;34.75;;;31.48;;
25111;SDS011;13092;51.996;4.458;2023-10-13T08:57:06;32.80;;;29.90;;
25111;SDS011;13092;51.996;4.458;2023-10-13T08:59:59;34.47;;;31.27;;
25111;SDS011;13092;51.996;4.458;2023-10-13T09:02:42;34.15;;;30.83;;
25111;SDS011;13092;51.996;4.458;2023-10-13T09:06:00;35.08;;;31.75;;
25111;SDS011;13092;51.996;4.458;2023-10-13T09:12:35;35.38;;;31.98;;
25111;SDS011;13092;51.996;4.458;2023-10-13T09:15:51;35.15;;;32.13;;
25111;SDS011;13092;51.996;4.458;2023-10-13T09:19:23;36.22;;;32.67;;
25111;SDS011;13092;51.996;4.458;2023-10-13T09:32:12;34.97;;;31.85;;
25111;SDS011;13092;51.996;4.458;2023-10-13T09:35:56;35.90;;;32.25;;
25111;SDS011;13092;51.996;4.458;2023-10-13T09:46:15;34.58;;;31.38;;
25111;SDS011;13092;51.996;4.458;2023-10-13T10:15:17;37.40;;;33.90;;
25111;SDS011;13092;51.996;4.458;2023-10-13T10:23:28;36.58;;;33.38;;
25111;SDS011;13092;51.996;4.458;2023-10-13T10:34:29;38.72;;;35.38;;
25111;SDS011;13092;51.996;4.458;2023-10-13T10:43:39;38.95;;;35.28;;
25111;SDS011;13092;51.996;4.458;2023-10-13T10:54:17;39.83;;;36.17;;
25111;SDS011;13092;51.996;4.458;2023-10-13T11:01:42;39.88;;;36.40;;
25111;SDS011;13092;51.996;4.458;2023-10-13T11:04:50;39.78;;;36.40;;
25111;SDS011;13092;51.996;4.458;2023-10-13T11:08:05;39.28;;;35.72;;
25111;SDS011;13092;51.996;4.458;2023-10-13T11:11:38;40.17;;;36.50;;
25111;SDS011;13092;51.996;4.458;2023-10-13T11:22:36;35.83;;;32.65;;
25111;SDS011;13092;51.996;4.458;2023-10-13T11:26:08;37.80;;;34.33;;
25111;SDS011;13092;51.996;4.458;2023-10-13T11:29:33;36.25;;;32.95;;
25111;SDS011;13092;51.996;4.458;2023-10-13T11:32:21;36.90;;;33.38;;
25111;SDS011;13092;51.996;4.458;2023-10-13T11:59:54;38.15;;;34.55;;
25111;SDS011;13092;51.996;4.458;2023-10-13T12:03:08;39.20;;;35.70;;
25111;SDS011;13092;51.996;4.458;2023-10-13T12:06:29;35.45;;;32.35;;
25111;SDS011;13092;51.996;4.458;2023-10-13T12:09:43;39.78;;;36.30;;
25111;SDS011;13092;51.996;4.458;2023-10-13T12:12:45;37.85;;;34.83;;
25111;SDS011;13092;51.996;4.458;2023-10-13T12:15:35;35.63;;;32.30;;
25111;SDS011;13092;51.996;4.458;2023-10-13T12:18:20;36.10;;;33.05;;
25111;SDS011;13092;51.996;4.458;2023-10-13T12:21:27;37.33;;;34.10;;
25111;SDS011;13092;51.996;4.458;2023-10-13T12:24:39;38.60;;;35.33;;
25111;SDS011;13092;51.996;4.458;2023-10-13T12:27:25;40.80;;;37.03;;
25111;SDS011;13092;51.996;4.458;2023-10-13T12:30:06;42.30;;;38.45;;
25111;SDS011;13092;51.996;4.458;2023-10-13T12:32:44;43.40;;;40.05;;
25111;SDS011;13092;51.996;4.458;2023-10-13T12:35:37;44.95;;;40.83;;
25111;SDS011;13092;51.996;4.458;2023-10-13T12:38:50;45.95;;;41.95;;
25111;SDS011;13092;51.996;4.458;2023-10-13T12:41:51;45.67;;;41.97;;
25111;SDS011;13092;51.996;4.458;2023-10-13T12:44:50;45.20;;;41.42;;
25111;SDS011;13092;51.996;4.458;2023-10-13T12:51:11;46.58;;;42.25;;
25111;SDS011;13092;51.996;4.458;2023-10-13T12:54:12;47.33;;;43.03;;
25111;SDS011;13092;51.996;4.458;2023-10-13T12:56:52;47.08;;;43.35;;
25111;SDS011;13092;51.996;4.458;2023-10-13T12:59:39;48.28;;;43.97;;
25111;SDS011;13092;51.996;4.458;2023-10-13T13:02:31;48.05;;;43.83;;
25111;SDS011;13092;51.996;4.458;2023-10-13T13:05:09;47.10;;;42.83;;
25111;SDS011;13092;51.996;4.458;2023-10-13T13:07:40;46.92;;;42.72;;
25111;SDS011;13092;51.996;4.458;2023-10-13T13:10:20;46.47;;;42.33;;
25111;SDS011;13092;51.996;4.458;2023-10-13T13:13:22;46.33;;;42.03;;
25111;SDS011;13092;51.996;4.458;2023-10-13T13:17:38;46.60;;;42.20;;
25111;SDS011;13092;51.996;4.458;2023-10-13T13:31:09;46.45;;;42.13;;
25111;SDS011;13092;51.996;4.458;2023-10-13T13:34:13;45.88;;;41.35;;
25111;SDS011;13092;51.996;4.458;2023-10-13T13:37:16;49.47;;;45.10;;
25111;SDS011;13092;51.996;4.458;2023-10-13T13:47:27;48.90;;;44.13;;
25111;SDS011;13092;51.996;4.458;2023-10-13T13:55:06;48.28;;;43.20;;
25111;SDS011;13092;51.996;4.458;2023-10-13T14:18:33;35.75;;;30.92;;
25111;SDS011;13092;51.996;4.458;2023-10-13T14:22:02;35.65;;;31.08;;
25111;SDS011;13092;51.996;4.458;2023-10-13T14:36:08;37.65;;;30.88;;
25111;SDS011;13092;51.996;4.458;2023-10-13T14:39:21;41.15;;;31.85;;
25111;SDS011;13092;51.996;4.458;2023-10-13T14:42:43;35.25;;;31.00;;
25111;SDS011;13092;51.996;4.458;2023-10-13T14:48:38;42.72;;;32.70;;
25111;SDS011;13092;51.996;4.458;2023-10-13T14:51:21;39.90;;;32.72;;
25111;SDS011;13092;51.996;4.458;2023-10-13T14:54:06;48.75;;;32.85;;
25111;SDS011;13092;51.996;4.458;2023-10-13T14:56:43;45.65;;;33.63;;
25111;SDS011;13092;51.996;4.458;2023-10-13T14:59:22;44.75;;;33.47;;
25111;SDS011;13092;51.996;4.458;2023-10-13T15:02:16;47.67;;;33.20;;
25111;SDS011;13092;51.996;4.458;2023-10-13T15:05:31;45.80;;;33.58;;
25111;SDS011;13092;51.996;4.458;2023-10-13T15:11:48;44.38;;;33.55;;
25111;SDS011;13092;51.996;4.458;2023-10-13T15:14:48;43.10;;;34.08;;
25111;SDS011;13092;51.996;4.458;2023-10-13T15:21:32;39.45;;;33.75;;
25111;SDS011;13092;51.996;4.458;2023-10-13T15:24:27;37.55;;;33.42;;
25111;SDS011;13092;51.996;4.458;2023-10-13T15:27:53;45.83;;;33.25;;
25111;SDS011;13092;51.996;4.458;2023-10-13T15:31:03;36.30;;;32.38;;
25111;SDS011;13092;51.996;4.458;2023-10-13T15:34:43;37.20;;;31.92;;
25111;SDS011;13092;51.996;4.458;2023-10-13T15:38:02;40.47;;;32.78;;
25111;SDS011;13092;51.996;4.458;2023-10-13T15:41:02;35.50;;;31.80;;
25111;SDS011;13092;51.996;4.458;2023-10-13T15:47:51;39.28;;;32.63;;
25111;SDS011;13092;51.996;4.458;2023-10-13T15:50:53;40.85;;;32.92;;
25111;SDS011;13092;51.996;4.458;2023-10-13T15:57:35;37.22;;;32.05;;
25111;SDS011;13092;51.996;4.458;2023-10-13T16:07:21;36.70;;;32.58;;
25111;SDS011;13092;51.996;4.458;2023-10-13T16:10:10;38.85;;;32.92;;
25111;SDS011;13092;51.996;4.458;2023-10-13T16:13:38;37.10;;;32.60;;
25111;SDS011;13092;51.996;4.458;2023-10-13T16:16:19;39.97;;;33.05;;
25111;SDS011;13092;51.996;4.458;2023-10-13T16:19:09;38.05;;;34.00;;
25111;SDS011;13092;51.996;4.458;2023-10-13T16:25:02;41.00;;;33.10;;
25111;SDS011;13092;51.996;4.458;2023-10-13T16:35:11;42.53;;;35.28;;
25111;SDS011;13092;51.996;4.458;2023-10-13T16:37:56;36.75;;;32.90;;
25111;SDS011;13092;51.996;4.458;2023-10-13T16:44:48;36.13;;;32.40;;
25111;SDS011;13092;51.996;4.458;2023-10-13T16:48:14;36.80;;;32.88;;
25111;SDS011;13092;51.996;4.458;2023-10-13T16:50:49;38.90;;;33.13;;
25111;SDS011;13092;51.996;4.458;2023-10-13T16:53:35;36.72;;;32.78;;
25111;SDS011;13092;51.996;4.458;2023-10-13T16:56:21;35.95;;;32.13;;
25111;SDS011;13092;51.996;4.458;2023-10-13T16:59:16;36.70;;;32.80;;
25111;SDS011;13092;51.996;4.458;2023-10-13T17:01:53;36.95;;;33.15;;
25111;SDS011;13092;51.996;4.458;2023-10-13T17:04:52;36.53;;;32.05;;
25111;SDS011;13092;51.996;4.458;2023-10-13T17:07:33;36.45;;;32.67;;
25111;SDS011;13092;51.996;4.458;2023-10-13T17:10:23;36.90;;;33.05;;
25111;SDS011;13092;51.996;4.458;2023-10-13T17:13:43;35.22;;;31.70;;
25111;SDS011;13092;51.996;4.458;2023-10-13T17:16:40;35.83;;;32.03;;
25111;SDS011;13092;51.996;4.458;2023-10-13T17:19:27;37.38;;;31.35;;
25111;SDS011;13092;51.996;4.458;2023-10-13T17:22:07;35.03;;;31.33;;
25111;SDS011;13092;51.996;4.458;2023-10-13T17:24:53;35.10;;;31.40;;
25111;SDS011;13092;51.996;4.458;2023-10-13T17:28:12;35.47;;;31.67;;
25111;SDS011;13092;51.996;4.458;2023-10-13T17:37:30;36.85;;;32.90;;
25111;SDS011;13092;51.996;4.458;2023-10-13T17:42:58;37.22;;;33.40;;
25111;SDS011;13092;51.996;4.458;2023-10-13T17:45:34;40.50;;;34.10;;
25111;SDS011;13092;51.996;4.458;2023-10-13T17:51:24;37.85;;;33.67;;
25111;SDS011;13092;51.996;4.458;2023-10-13T17:54:25;40.28;;;34.33;;
25111;SDS011;13092;51.996;4.458;2023-10-13T17:57:10;37.28;;;33.22;;
25111;SDS011;13092;51.996;4.458;2023-10-13T17:59:43;40.78;;;33.80;;
25111;SDS011;13092;51.996;4.458;2023-10-13T18:05:12;38.58;;;33.65;;
25111;SDS011;13092;51.996;4.458;2023-10-13T18:08:21;37.08;;;33.05;;
25111;SDS011;13092;51.996;4.458;2023-10-13T18:11:03;37.97;;;33.92;;
25111;SDS011;13092;51.996;4.458;2023-10-13T18:13:37;37.00;;;32.80;;
25111;SDS011;13092;51.996;4.458;2023-10-13T18:16:34;39.17;;;32.85;;
25111;SDS011;13092;51.996;4.458;2023-10-13T18:22:48;36.42;;;32.58;;
25111;SDS011;13092;51.996;4.458;2023-10-13T18:26:04;37.30;;;33.40;;
25111;SDS011;13092;51.996;4.458;2023-10-13T18:28:58;36.67;;;32.88;;
25111;SDS011;13092;51.996;4.458;2023-10-13T18:39:54;36.40;;;32.60;;
25111;SDS011;13092;51.996;4.458;2023-10-13T18:50:25;36.25;;;32.35;;
25111;SDS011;13092;51.996;4.458;2023-10-13T19:39:28;40.88;;;36.67;;
25111;SDS011;13092;51.996;4.458;2023-10-13T19:42:03;42.40;;;37.97;;
25111;SDS011;13092;51.996;4.458;2023-10-13T19:44:33;43.65;;;38.53;;
25111;SDS011;13092;51.996;4.458;2023-10-13T19:47:03;43.10;;;38.42;;
25111;SDS011;13092;51.996;4.458;2023-10-13T19:49:39;44.35;;;38.53;;
25111;SDS011;13092;51.996;4.458;2023-10-13T19:52:11;42.95;;;37.90;;
25111;SDS011;13092;51.996;4.458;2023-10-13T19:54:47;42.45;;;38.15;;
25111;SDS011;13092;51.996;4.458;2023-10-13T19:57:16;42.33;;;37.83;;
25111;SDS011;13092;51.996;4.458;2023-10-13T19:59:44;43.03;;;38.53;;
25111;SDS011;13092;51.996;4.458;2023-10-13T20:02:13;42.28;;;38.05;;
25111;SDS011;13092;51.996;4.458;2023-10-13T20:04:41;41.35;;;37.45;;
25111;SDS011;13092;51.996;4.458;2023-10-13T20:07:09;41.83;;;37.42;;
25111;SDS011;13092;51.996;4.458;2023-10-13T20:09:38;41.42;;;37.03;;
25111;SDS011;13092;51.996;4.458;2023-10-13T20:12:10;40.75;;;36.72;;
25111;SDS011;13092;51.996;4.458;2023-10-13T20:14:44;41.22;;;37.10;;
25111;SDS011;13092;51.996;4.458;2023-10-13T20:17:16;39.78;;;35.78;;
25111;SDS011;13092;51.996;4.458;2023-10-13T20:19:44;40.05;;;36.20;;
25111;SDS011;13092;51.996;4.458;2023-10-13T20:22:14;40.38;;;36.28;;
25111;SDS011;13092;51.996;4.458;2023-10-13T20:24:42;40.13;;;36.03;;
25111;SDS011;13092;51.996;4.458;2023-10-13T20:27:13;38.22;;;34.72;;
25111;SDS011;13092;51.996;4.458;2023-10-13T20:29:43;38.67;;;34.63;;
25111;SDS011;13092;51.996;4.458;2023-10-13T20:32:12;39.08;;;35.13;;
25111;SDS011;13092;51.996;4.458;2023-10-13T20:34:42;38.38;;;34.50;;
25111;SDS011;13092;51.996;4.458;2023-10-13T20:37:11;39.67;;;35.35;;
25111;SDS011;13092;51.996;4.458;2023-10-13T20:39:39;40.35;;;36.05;;
25111;SDS011;13092;51.996;4.458;2023-10-13T20:42:08;39.90;;;35.75;;
25111;SDS011;13092;51.996;4.458;2023-10-13T20:44:37;39.35;;;35.60;;
25111;SDS011;13092;51.996;4.458;2023-10-13T20:47:06;39.53;;;35.33;;
25111;SDS011;13092;51.996;4.458;2023-10-13T20:49:37;41.47;;;36.03;;
25111;SDS011;13092;51.996;4.458;2023-10-13T20:52:06;40.45;;;36.25;;
25111;SDS011;13092;51.996;4.458;2023-10-13T20:54:35;39.45;;;35.35;;
25111;SDS011;13092;51.996;4.458;2023-10-13T20:57:04;39.83;;;35.55;;
25111;SDS011;13092;51.996;4.458;2023-10-13T20:59:34;39.90;;;35.38;;
25111;SDS011;13092;51.996;4.458;2023-10-13T21:02:07;38.65;;;34.47;;
25111;SDS011;13092;51.996;4.458;2023-10-13T21:04:36;40.45;;;35.08;;
25111;SDS011;13092;51.996;4.458;2023-10-13T21:07:04;37.92;;;34.22;;
25111;SDS011;13092;51.996;4.458;2023-10-13T21:09:33;38.75;;;34.55;;
25111;SDS011;13092;51.996;4.458;2023-10-13T21:12:03;41.08;;;35.63;;
25111;SDS011;13092;51.996;4.458;2023-10-13T21:14:32;36.95;;;33.13;;
25111;SDS011;13092;51.996;4.458;2023-10-13T21:17:01;36.28;;;32.40;;
25111;SDS011;13092;51.996;4.458;2023-10-13T21:19:32;37.15;;;32.30;;
25111;SDS011;13092;51.996;4.458;2023-10-13T21:22:02;30.35;;;27.13;;
25111;SDS011;13092;51.996;4.458;2023-10-13T21:24:34;26.95;;;24.48;;
25111;SDS011;13092;51.996;4.458;2023-10-13T21:27:03;26.85;;;24.73;;
25111;SDS011;13092;51.996;4.458;2023-10-13T21:29:32;27.27;;;25.27;;
25111;SDS011;13092;51.996;4.458;2023-10-13T21:32:00;28.30;;;25.98;;
25111;SDS011;13092;51.996;4.458;2023-10-13T21:34:29;28.58;;;26.05;;
25111;SDS011;13092;51.996;4.458;2023-10-13T21:36:59;28.50;;;26.15;;
25111;SDS011;13092;51.996;4.458;2023-10-13T21:39:28;27.70;;;25.40;;
25111;SDS011;13092;51.996;4.458;2023-10-13T21:42:13;27.65;;;25.20;;
25111;SDS011;13092;51.996;4.458;2023-10-13T21:44:41;26.90;;;24.83;;
25111;SDS011;13092;51.996;4.458;2023-10-13T21:47:11;28.42;;;25.90;;
25111;SDS011;13092;51.996;4.458;2023-10-13T21:49:40;28.42;;;25.95;;
25111;SDS011;13092;51.996;4.458;2023-10-13T21:52:12;29.45;;;26.67;;
25111;SDS011;13092;51.996;4.458;2023-10-13T21:54:42;28.48;;;25.75;;
25111;SDS011;13092;51.996;4.458;2023-10-13T21:57:11;27.95;;;25.45;;
25111;SDS011;13092;51.996;4.458;2023-10-13T21:59:44;28.10;;;25.70;;
25111;SDS011;13092;51.996;4.458;2023-10-13T22:02:18;27.55;;;25.20;;
25111;SDS011;13092;51.996;4.458;2023-10-13T22:04:49;28.10;;;25.55;;
25111;SDS011;13092;51.996;4.458;2023-10-13T22:07:20;27.77;;;25.48;;
25111;SDS011;13092;51.996;4.458;2023-10-13T22:09:49;27.63;;;25.23;;
25111;SDS011;13092;51.996;4.458;2023-10-13T22:12:17;28.15;;;25.70;;
25111;SDS011;13092;51.996;4.458;2023-10-13T22:14:47;27.63;;;25.23;;
25111;SDS011;13092;51.996;4.458;2023-10-13T22:17:22;27.98;;;25.60;;
25111;SDS011;13092;51.996;4.458;2023-10-13T22:19:52;27.73;;;25.42;;
25111;SDS011;13092;51.996;4.458;2023-10-13T22:22:20;28.40;;;25.90;;
25111;SDS011;13092;51.996;4.458;2023-10-13T22:24:48;28.13;;;25.42;;
25111;SDS011;13092;51.996;4.458;2023-10-13T22:27:17;27.92;;;25.60;;
25111;SDS011;13092;51.996;4.458;2023-10-13T22:29:45;28.60;;;25.90;;
25111;SDS011;13092;51.996;4.458;2023-10-13T22:32:15;28.60;;;26.05;;
25111;SDS011;13092;51.996;4.458;2023-10-13T22:34:44;28.10;;;25.70;;
25111;SDS011;13092;51.996;4.458;2023-10-13T22:37:14;29.23;;;26.60;;
25111;SDS011;13092;51.996;4.458;2023-10-13T22:39:43;29.73;;;26.70;;
25111;SDS011;13092;51.996;4.458;2023-10-13T22:42:11;28.35;;;25.88;;
25111;SDS011;13092;51.996;4.458;2023-10-13T22:44:40;28.67;;;25.85;;
25111;SDS011;13092;51.996;4.458;2023-10-13T22:47:08;28.45;;;25.98;;
25111;SDS011;13092;51.996;4.458;2023-10-13T22:49:37;28.27;;;25.55;;
25111;SDS011;13092;51.996;4.458;2023-10-13T22:52:06;28.58;;;26.00;;
25111;SDS011;13092;51.996;4.458;2023-10-13T22:54:36;29.30;;;26.67;;
25111;SDS011;13092;51.996;4.458;2023-10-13T22:57:08;28.15;;;25.75;;
25111;SDS011;13092;51.996;4.458;2023-10-13T22:59:37;28.60;;;26.02;;
25111;SDS011;13092;51.996;4.458;2023-10-13T23:02:05;27.95;;;25.45;;
25111;SDS011;13092;51.996;4.458;2023-10-13T23:04:40;28.08;;;25.60;;
25111;SDS011;13092;51.996;4.458;2023-10-13T23:07:09;28.67;;;26.17;;
25111;SDS011;13092;51.996;4.458;2023-10-13T23:09:46;28.58;;;25.90;;
25111;SDS011;13092;51.996;4.458;2023-10-13T23:12:17;27.77;;;25.38;;
25111;SDS011;13092;51.996;4.458;2023-10-13T23:14:47;28.98;;;26.15;;
25111;SDS011;13092;51.996;4.458;2023-10-13T23:17:17;28.30;;;25.65;;
25111;SDS011;13092;51.996;4.458;2023-10-13T23:19:47;27.55;;;24.73;;
25111;SDS011;13092;51.996;4.458;2023-10-13T23:22:15;28.77;;;25.98;;
25111;SDS011;13092;51.996;4.458;2023-10-13T23:24:45;27.77;;;25.33;;
25111;SDS011;13092;51.996;4.458;2023-10-13T23:27:14;28.55;;;25.70;;
25111;SDS011;13092;51.996;4.458;2023-10-13T23:29:44;28.45;;;25.80;;
25111;SDS011;13092;51.996;4.458;2023-10-13T23:32:12;28.55;;;25.27;;
25111;SDS011;13092;51.996;4.458;2023-10-13T23:34:44;31.70;;;25.75;;
25111;SDS011;13092;51.996;4.458;2023-10-13T23:37:12;28.65;;;25.80;;
25111;SDS011;13092;51.996;4.458;2023-10-13T23:39:41;27.95;;;25.35;;
25111;SDS011;13092;51.996;4.458;2023-10-13T23:42:13;28.17;;;25.58;;
25111;SDS011;13092;51.996;4.458;2023-10-13T23:44:50;29.25;;;26.33;;
25111;SDS011;13092;51.996;4.458;2023-10-13T23:47:21;28.45;;;26.10;;
25111;SDS011;13092;51.996;4.458;2023-10-13T23:49:54;29.35;;;26.27;;
25111;SDS011;13092;51.996;4.458;2023-10-13T23:52:24;28.73;;;26.23;;
25111;SDS011;13092;51.996;4.458;2023-10-13T23:54:58;29.17;;;26.77;;
25111;SDS011;13092;51.996;4.458;2023-10-13T23:57:33;29.83;;;27.33;;
